Time;durP1;ratioP1;P1;durP2;ratioP2;P2;SDS_P1;SDS_P2;PMS_P1;PMS_P2;Temp;Humidity;BMP_temperature;BMP_pressure;BME280_temperature;BME280_humidity;BME280_pressure;Samples;Min_cycle;Max_cycle;Signal;HPM_P1;HPM_P2
2021/12/08 00:01:06;;;;;;;16.00;4.87;;;2.30;99.90;;;;;;4999711;28;20023;-94
2021/12/08 00:03:32;;;;;;;15.67;4.73;;;3.40;99.90;;;;;;4983321;28;20066;-95
2021/12/08 00:05:58;;;;;;;13.63;5.07;;;3.70;99.90;;;;;;4983698;28;20046;-95
2021/12/08 00:08:27;;;;;;;14.67;5.40;;;3.50;99.90;;;;;;4976850;28;20051;-95
2021/12/08 00:13:28;;;;;;;12.10;4.43;;;2.20;99.90;;;;;;4976852;28;20458;-95
2021/12/08 00:15:56;;;;;;;13.70;5.00;;;2.40;99.90;;;;;;4977261;28;20102;-95
2021/12/08 00:18:25;;;;;;;11.77;5.03;;;2.10;99.90;;;;;;4977473;28;20057;-95
2021/12/08 00:20:54;;;;;;;13.37;5.43;;;2.20;99.90;;;;;;4976627;28;20050;-94
2021/12/08 00:23:20;;;;;;;16.57;4.73;;;2.20;99.90;;;;;;4976896;28;20055;-96
2021/12/08 00:25:47;;;;;;;15.07;5.50;;;3.50;99.90;;;;;;4976833;28;20042;-95
2021/12/08 00:28:13;;;;;;;13.53;4.77;;;3.10;99.90;;;;;;4975786;28;20047;-96
2021/12/08 00:30:42;;;;;;;13.73;5.13;;;3.10;99.90;;;;;;4976846;28;20034;-95
2021/12/08 00:33:09;;;;;;;12.10;4.70;;;2.30;99.90;;;;;;4977515;28;20047;-95
2021/12/08 00:35:37;;;;;;;17.00;5.00;;;2.50;99.90;;;;;;4976904;28;20081;-95
2021/12/08 00:38:04;;;;;;;11.57;4.60;;;3.50;99.90;;;;;;4976436;28;20043;-95
2021/12/08 00:40:30;;;;;;;15.33;5.27;;;3.90;99.90;;;;;;4977037;28;20046;-96
2021/12/08 00:42:57;;;;;;;13.00;4.20;;;3.30;99.90;;;;;;4981615;28;20033;-95
2021/12/08 00:45:24;;;;;;;13.00;4.77;;;2.30;99.90;;;;;;4998542;28;20038;-95
2021/12/08 00:47:51;;;;;;;12.10;4.50;;;2.80;99.90;;;;;;4976812;28;20109;-95
2021/12/08 00:50:19;;;;;;;12.70;4.43;;;3.20;99.90;;;;;;4977756;28;20101;-94
2021/12/08 00:52:45;;;;;;;12.93;4.23;;;2.60;99.90;;;;;;4987853;28;20082;-96
2021/12/08 00:55:14;;;;;;;13.00;4.10;;;3.40;99.90;;;;;;4993983;28;20082;-95
2021/12/08 00:57:40;;;;;;;11.83;4.20;;;2.60;99.90;;;;;;4980963;28;20491;-95
2021/12/08 01:00:18;;;;;;;10.00;4.03;;;2.60;99.90;;;;;;4977511;28;20039;-96
2021/12/08 01:02:44;;;;;;;12.67;4.03;;;2.60;99.90;;;;;;4976011;28;20134;-95
2021/12/08 01:05:14;;;;;;;12.70;4.43;;;2.40;99.90;;;;;;4978577;28;20078;-96
2021/12/08 01:07:44;;;;;;;11.17;3.90;;;3.70;99.90;;;;;;4976241;28;20046;-96
2021/12/08 01:10:16;;;;;;;12.87;4.80;;;3.20;99.90;;;;;;4977535;28;20069;-96
2021/12/08 01:12:42;;;;;;;10.80;4.20;;;2.80;99.90;;;;;;4976961;28;20047;-95
2021/12/08 01:15:08;;;;;;;14.53;4.63;;;2.60;99.90;;;;;;4975862;28;20043;-95
2021/12/08 01:17:37;;;;;;;13.70;4.50;;;2.60;99.90;;;;;;4977405;28;20046;-95
2021/12/08 01:20:07;;;;;;;13.13;4.27;;;2.50;99.90;;;;;;4975503;28;20129;-94
2021/12/08 01:22:32;;;;;;;13.27;4.37;;;2.60;99.90;;;;;;4976482;28;20043;-95
2021/12/08 01:24:58;;;;;;;11.67;4.40;;;3.40;99.90;;;;;;4976549;28;20043;-95
2021/12/08 01:27:24;;;;;;;12.17;4.43;;;2.40;99.90;;;;;;4976149;28;20054;-95
2021/12/08 01:29:50;;;;;;;9.80;3.97;;;;;;;;;;4976691;28;20047;-95
2021/12/08 01:32:15;;;;;;;12.50;4.37;;;2.70;99.90;;;;;;4977185;28;20058;-95
2021/12/08 01:34:41;;;;;;;11.93;4.50;;;3.20;99.90;;;;;;4979461;28;20391;-95
2021/12/08 01:37:07;;;;;;;10.83;4.10;;;2.70;99.90;;;;;;4981295;28;20043;-96
2021/12/08 01:39:33;;;;;;;11.80;4.73;;;2.60;99.90;;;;;;4980410;28;20102;-95
2021/12/08 01:41:58;;;;;;;9.83;4.23;;;3.60;99.90;;;;;;4979561;28;20077;-95
2021/12/08 01:47:08;;;;;;;14.57;4.78;;;2.00;99.90;;;;;;4981285;28;20078;-94
2021/12/08 01:49:34;;;;;;;11.97;4.33;;;2.70;99.90;;;;;;4980462;28;20522;-95
2021/12/08 01:52:00;;;;;;;11.70;4.47;;;2.50;99.90;;;;;;4979276;28;20110;-96
2021/12/08 01:54:26;;;;;;;11.57;4.60;;;2.70;99.90;;;;;;4979644;28;20074;-95
2021/12/08 01:56:52;;;;;;;12.30;4.20;;;2.40;99.90;;;;;;4979396;28;20079;-95
2021/12/08 01:59:18;;;;;;;12.00;4.23;;;3.90;99.90;;;;;;4979582;28;20049;-95
2021/12/08 02:01:45;;;;;;;11.57;4.27;;;2.60;99.90;;;;;;4979079;28;20043;-95
2021/12/08 02:04:12;;;;;;;11.57;4.27;;;3.00;99.90;;;;;;4980178;28;20039;-95
2021/12/08 02:06:43;;;;;;;10.93;3.97;;;2.90;99.90;;;;;;4979829;28;20051;-95
2021/12/08 02:09:14;;;;;;;10.73;4.10;;;1.90;99.90;;;;;;4978842;28;20043;-94
2021/12/08 02:11:44;;;;;;;12.07;4.20;;;3.10;99.90;;;;;;4979879;28;20101;-95
2021/12/08 02:14:10;;;;;;;9.73;3.73;;;3.50;99.90;;;;;;4981336;28;20093;-94
2021/12/08 02:16:36;;;;;;;11.33;3.93;;;2.60;99.90;;;;;;4979439;28;20526;-95
2021/12/08 02:19:03;;;;;;;11.20;4.10;;;3.60;99.90;;;;;;4978923;28;20047;-95
2021/12/08 02:21:39;;;;;;;10.27;3.83;;;2.60;99.90;;;;;;4980721;28;20051;-95
2021/12/08 02:24:11;;;;;;;12.73;4.30;;;2.60;99.90;;;;;;4978717;28;20596;-95
2021/12/08 02:26:39;;;;;;;13.13;4.00;;;2.40;99.90;;;;;;4981581;28;20042;-95
2021/12/08 02:29:10;;;;;;;11.37;4.20;;;2.20;99.90;;;;;;4978788;28;20051;-96
2021/12/08 02:32:05;;;;;;;11.03;3.73;;;2.30;99.90;;;;;;4978955;28;20046;-95
2021/12/08 02:48:05;;;;;;;12.20;4.30;;;2.50;99.90;;;;;;4996239;28;20063;-94
2021/12/08 02:50:35;;;;;;;10.33;4.43;;;2.60;99.90;;;;;;4979177;28;20046;-94
2021/12/08 02:53:03;;;;;;;13.50;4.83;;;3.90;99.90;;;;;;4981449;28;20113;-95
2021/12/08 02:55:30;;;;;;;11.70;4.30;;;3.20;99.90;;;;;;4986330;28;20045;-95
2021/12/08 02:57:57;;;;;;;12.63;4.77;;;2.50;99.90;;;;;;5000816;28;20023;-94
2021/12/08 03:00:26;;;;;;;11.47;4.27;;;2.70;99.90;;;;;;5001103;28;20035;-93
2021/12/08 03:02:54;;;;;;;12.17;4.97;;;2.50;99.90;;;;;;5020076;28;20054;-94
2021/12/08 03:05:20;;;;;;;12.93;4.50;;;2.50;99.90;;;;;;5000470;28;20054;-95
2021/12/08 03:07:46;;;;;;;11.20;4.23;;;4.00;99.90;;;;;;4998754;28;20047;-94
2021/12/08 03:10:17;;;;;;;12.57;4.93;;;3.00;99.90;;;;;;4997511;28;20042;-94
2021/12/08 03:12:43;;;;;;;10.87;4.60;;;2.80;99.90;;;;;;4998576;28;20106;-94
2021/12/08 03:15:11;;;;;;;12.80;5.40;;;3.70;99.90;;;;;;4998446;28;20081;-95
2021/12/08 03:17:36;;;;;;;12.40;5.40;;;2.50;99.90;;;;;;4999019;28;20034;-94
2021/12/08 03:20:12;;;;;;;12.67;5.17;;;2.80;99.90;;;;;;4998298;28;20056;-94
2021/12/08 03:22:43;;;;;;;11.47;5.20;;;3.10;99.90;;;;;;4997647;28;20065;-94
2021/12/08 03:25:12;;;;;;;14.67;6.10;;;3.40;99.90;;;;;;4999017;28;20082;-94
2021/12/08 03:27:46;;;;;;;13.87;5.77;;;3.10;99.90;;;;;;5000921;28;20133;-94
2021/12/08 03:30:19;;;;;;;12.57;6.50;;;3.00;99.90;;;;;;5000350;28;20046;-94
2021/12/08 03:32:45;;;;;;;12.38;6.28;;;3.00;99.90;;;;;;4997512;28;20104;-94
2021/12/08 03:35:15;;;;;;;13.80;6.33;;;2.90;99.90;;;;;;4997993;28;20050;-95
2021/12/08 03:37:46;;;;;;;13.97;6.33;;;3.70;99.90;;;;;;4997793;28;20046;-95
2021/12/08 03:40:16;;;;;;;17.33;5.80;;;3.30;99.90;;;;;;4998227;28;20042;-94
2021/12/08 03:42:43;;;;;;;13.60;6.10;;;2.90;99.90;;;;;;4997742;28;20046;-95
2021/12/08 03:45:20;;;;;;;14.07;6.37;;;3.20;99.90;;;;;;4997788;28;20053;-94
2021/12/08 03:47:58;;;;;;;13.40;6.60;;;3.60;99.90;;;;;;4998152;28;20043;-95
2021/12/08 03:50:23;;;;;;;13.93;6.37;;;3.40;99.90;;;;;;4998338;28;20057;-94
2021/12/08 03:52:49;;;;;;;12.83;7.10;;;3.50;99.90;;;;;;4997789;28;20038;-94
2021/12/08 03:55:16;;;;;;;13.90;7.33;;;3.50;99.90;;;;;;4997379;28;20077;-94
2021/12/08 03:57:42;;;;;;;16.13;8.10;;;4.50;99.90;;;;;;4997247;28;20047;-95
2021/12/08 04:00:14;;;;;;;14.67;7.50;;;4.30;99.90;;;;;;4998306;28;20106;-94
2021/12/08 04:02:40;;;;;;;13.47;7.50;;;3.70;99.90;;;;;;4998048;28;20511;-94
2021/12/08 04:05:07;;;;;;;15.63;7.93;;;4.30;99.90;;;;;;4997994;28;20052;-94
2021/12/08 04:07:32;;;;;;;17.27;8.03;;;3.80;99.90;;;;;;4998066;28;20053;-94
2021/12/08 04:09:59;;;;;;;15.87;7.83;;;4.40;99.90;;;;;;4996292;28;20054;-95
2021/12/08 04:12:25;;;;;;;16.43;8.17;;;3.60;99.90;;;;;;4999187;28;20046;-94
2021/12/08 04:14:58;;;;;;;15.80;8.10;;;3.40;99.90;;;;;;4997065;28;20505;-93
2021/12/08 04:17:35;;;;;;;15.43;8.35;;;4.10;99.90;;;;;;4996446;28;20057;-94
2021/12/08 04:20:17;;;;;;;15.37;8.40;;;3.00;99.90;;;;;;4997749;28;20054;-93
2021/12/08 04:22:47;;;;;;;17.80;8.33;;;2.90;99.90;;;;;;4997477;28;20046;-93
2021/12/08 04:25:18;;;;;;;16.03;8.13;;;3.90;99.90;;;;;;4998060;28;20053;-94
2021/12/08 04:27:46;;;;;;;16.17;8.43;;;3.40;99.90;;;;;;4996940;28;20051;-94
2021/12/08 04:30:19;;;;;;;15.20;8.70;;;4.10;99.90;;;;;;5002439;28;20038;-94
2021/12/08 04:32:45;;;;;;;19.23;9.93;;;3.20;99.90;;;;;;5017084;28;20102;-94
2021/12/08 04:35:11;;;;;;;17.60;9.57;;;3.50;99.90;;;;;;4996127;28;20050;-94
2021/12/08 04:37:42;;;;;;;21.47;10.70;;;4.40;99.90;;;;;;4997175;28;20046;-94
2021/12/08 04:46:21;;;;;;;16.63;9.27;;;3.60;99.90;;;;;;4996874;28;20491;-95
2021/12/08 05:00:13;;;;;;;17.10;8.73;;;3.70;99.90;;;;;;4998981;28;20089;-94
2021/12/08 05:05:14;;;;;;;15.57;8.00;;;3.70;99.90;;;;;;4979892;28;20086;-94
2021/12/08 05:07:34;;;;;;;15.33;7.80;;;4.70;99.90;;;;;;4979629;28;20046;-95
2021/12/08 05:10:08;;;;;;;17.48;8.02;;;4.40;99.90;;;;;;4977438;28;20065;-94
2021/12/08 05:12:36;;;;;;;13.93;7.70;;;5.00;99.90;;;;;;4978405;28;20164;-94
2021/12/08 05:15:26;;;;;;;17.93;8.37;;;3.90;99.90;;;;;;4979182;28;20053;-95
2021/12/08 05:18:02;;;;;;;16.90;8.30;;;4.00;99.90;;;;;;4979297;28;20129;-95
2021/12/08 05:20:39;;;;;;;14.93;7.73;;;4.10;99.90;;;;;;4982210;28;20545;-94
2021/12/08 05:23:11;;;;;;;15.20;7.60;;;3.90;99.90;;;;;;4981248;28;20043;-95
2021/12/08 05:25:39;;;;;;;15.60;8.03;;;4.10;99.90;;;;;;4983290;28;20511;-96
2021/12/08 05:28:10;;;;;;;14.43;7.67;;;3.80;99.90;;;;;;4981991;28;20570;-95
2021/12/08 05:30:44;;;;;;;15.95;8.50;;;5.10;99.90;;;;;;4980428;28;20043;-95
2021/12/08 05:33:12;;;;;;;14.20;8.10;;;3.80;99.90;;;;;;4979107;28;20047;-94
2021/12/08 05:35:42;;;;;;;17.30;8.37;;;3.90;99.90;;;;;;4980433;28;20523;-95
2021/12/08 05:38:09;;;;;;;14.93;8.07;;;3.50;99.90;;;;;;4977435;28;20047;-95
2021/12/08 05:40:45;;;;;;;16.43;8.10;;;3.30;99.90;;;;;;4978564;28;20070;-94
2021/12/08 05:43:11;;;;;;;15.97;7.43;;;4.00;99.90;;;;;;4979132;28;20054;-94
2021/12/08 05:45:38;;;;;;;14.27;7.63;;;4.40;99.90;;;;;;4977148;28;20047;-95
2021/12/08 05:48:05;;;;;;;14.30;7.43;;;4.00;99.90;;;;;;4979207;28;20054;-95
2021/12/08 05:50:42;;;;;;;14.43;7.30;;;4.20;99.90;;;;;;4979680;28;20502;-95
2021/12/08 05:53:07;;;;;;;16.13;7.97;;;4.60;99.90;;;;;;4978420;28;20046;-95
2021/12/08 05:55:34;;;;;;;14.87;7.30;;;4.40;99.90;;;;;;4977574;28;20399;-95
2021/12/08 05:58:00;;;;;;;18.03;7.57;;;5.40;99.90;;;;;;4979078;28;20141;-95
2021/12/08 06:00:32;;;;;;;17.23;8.87;;;4.10;99.90;;;;;;4997523;28;20019;-94
2021/12/08 06:02:58;;;;;;;27.67;13.17;;;4.10;99.90;;;;;;4997160;28;20110;-95
2021/12/08 06:05:26;;;;;;;26.50;12.97;;;4.40;99.90;;;;;;4997358;28;20043;-95
2021/12/08 06:07:52;;;;;;;25.83;12.33;;;4.50;99.90;;;;;;4979678;28;20050;-95
2021/12/08 06:10:23;;;;;;;21.50;10.87;;;4.90;99.90;;;;;;4976833;28;20047;-95
2021/12/08 06:12:50;;;;;;;19.83;9.07;;;3.80;99.90;;;;;;4977988;28;20046;-94
2021/12/08 06:15:17;;;;;;;19.20;9.60;;;3.90;99.90;;;;;;4976192;28;20039;-94
2021/12/08 06:17:42;;;;;;;20.20;8.97;;;4.90;99.90;;;;;;4975299;28;20082;-95
2021/12/08 06:20:11;;;;;;;15.77;7.93;;;3.70;99.90;;;;;;4975697;28;20083;-95
2021/12/08 06:22:39;;;;;;;17.33;8.13;;;4.10;99.90;;;;;;4979072;28;20054;-93
2021/12/08 06:25:07;;;;;;;15.73;8.07;;;3.80;99.90;;;;;;4995103;28;20036;-92
2021/12/08 06:27:33;;;;;;;15.97;7.83;;;4.10;99.90;;;;;;4994189;28;20042;-94
2021/12/08 06:29:59;;;;;;;17.37;9.17;;;4.90;99.90;;;;;;4982247;28;20042;-95
2021/12/08 06:32:26;;;;;;;20.00;9.13;;;4.90;99.90;;;;;;4979877;28;20042;-94
2021/12/08 06:34:56;;;;;;;19.83;9.63;;;4.20;99.90;;;;;;5000097;28;20054;-95
2021/12/08 06:37:35;;;;;;;17.17;8.67;;;3.60;99.90;;;;;;4985023;28;20139;-94
2021/12/08 06:40:09;;;;;;;16.07;8.10;;;4.20;99.90;;;;;;4978097;28;20161;-95
2021/12/08 06:42:38;;;;;;;17.30;8.30;;;4.20;99.90;;;;;;4978610;28;20039;-95
2021/12/08 06:45:10;;;;;;;14.90;7.33;;;4.20;99.90;;;;;;4977738;28;20488;-94
2021/12/08 06:47:36;;;;;;;14.63;7.97;;;4.10;99.90;;;;;;4978027;28;20050;-93
2021/12/08 06:50:09;;;;;;;14.33;6.97;;;3.90;99.90;;;;;;4978760;28;20514;-93
2021/12/08 06:52:38;;;;;;;15.13;7.07;;;4.10;99.90;;;;;;4980192;28;20050;-93
2021/12/08 06:55:21;;;;;;;16.70;6.50;;;4.70;99.90;;;;;;4978537;28;20329;-95
2021/12/08 06:58:00;;;;;;;14.45;6.40;;;4.20;99.90;;;;;;4976813;28;20110;-91
2021/12/08 07:08:19;;;;;;;13.37;5.80;;;4.20;99.90;;;;;;4976144;28;20095;-90
2021/12/08 07:10:47;;;;;;;13.73;6.10;;;4.20;99.90;;;;;;4975063;28;20113;-88
2021/12/08 07:13:17;;;;;;;15.50;6.07;;;4.20;99.90;;;;;;4976532;28;20134;-88
2021/12/08 07:15:59;;;;;;;12.27;5.60;;;4.20;99.90;;;;;;4975288;28;20469;-87
2021/12/08 07:18:38;;;;;;;16.20;6.30;;;4.20;99.90;;;;;;4975995;28;20047;-93
2021/12/08 07:21:06;;;;;;;15.20;5.70;;;5.00;99.90;;;;;;4976565;28;20066;-90
2021/12/08 07:23:53;;;;;;;15.03;5.67;;;4.30;99.90;;;;;;4968488;28;20050;-90
2021/12/08 07:26:26;;;;;;;12.57;5.40;;;4.10;99.90;;;;;;4974822;28;20074;-89
2021/12/08 07:28:53;;;;;;;12.65;5.18;;;4.80;99.90;;;;;;4976163;28;20058;-89
2021/12/08 07:31:33;;;;;;;14.83;5.60;;;4.40;99.90;;;;;;4976139;28;20047;-90
2021/12/08 07:34:05;;;;;;;11.70;4.30;;;4.80;99.90;;;;;;4975320;28;20082;-91
2021/12/08 07:36:33;;;;;;;14.57;4.93;;;4.40;99.90;;;;;;4975361;28;20043;-91
2021/12/08 07:39:00;;;;;;;12.73;4.33;;;4.20;99.90;;;;;;4975953;28;20050;-91
2021/12/08 07:41:32;;;;;;;13.57;4.50;;;4.20;99.90;;;;;;4975253;28;20046;-92
2021/12/08 07:44:01;;;;;;;13.53;4.47;;;4.70;99.90;;;;;;4974215;28;20415;-89
2021/12/08 07:46:32;;;;;;;12.73;4.20;;;4.30;99.90;;;;;;4974894;28;20054;-89
2021/12/08 07:49:21;;;;;;;10.77;4.27;;;4.50;99.90;;;;;;4974251;28;20062;-88
2021/12/08 07:51:53;;;;;;;12.43;4.60;;;4.30;99.90;;;;;;4974416;28;20486;-88
2021/12/08 07:54:20;;;;;;;13.00;4.83;;;4.30;99.90;;;;;;4974242;28;20047;-88
2021/12/08 07:56:48;;;;;;;13.50;4.67;;;4.30;99.90;;;;;;4975060;28;20043;-88
2021/12/08 07:59:17;;;;;;;12.83;4.90;;;4.30;99.90;;;;;;4974466;28;20051;-88
2021/12/08 08:01:47;;;;;;;11.60;4.70;;;4.30;99.90;;;;;;4974338;28;20053;-88
2021/12/08 08:04:17;;;;;;;13.73;4.83;;;4.50;99.90;;;;;;4973851;28;20046;-89
2021/12/08 08:06:47;;;;;;;14.27;4.77;;;4.30;99.90;;;;;;4968309;28;20039;-87
2021/12/08 08:09:20;;;;;;;12.63;4.87;;;4.30;99.90;;;;;;4964202;28;20039;-87
2021/12/08 08:11:55;;;;;;;10.57;3.83;;;4.30;99.90;;;;;;4966196;28;20039;-87
2021/12/08 08:14:22;;;;;;;11.13;4.17;;;4.30;99.90;;;;;;4964734;28;20322;-87
2021/12/08 08:16:55;;;;;;;10.97;3.77;;;4.20;99.90;;;;;;4954321;28;20043;-87
2021/12/08 08:19:26;;;;;;;15.20;4.07;;;4.30;99.90;;;;;;4959330;28;20133;-87
2021/12/08 08:21:58;;;;;;;13.17;3.80;;;4.20;99.90;;;;;;4954806;29;20126;-88
2021/12/08 08:24:24;;;;;;;11.73;3.47;;;4.20;99.90;;;;;;4955537;29;20403;-86
2021/12/08 08:26:53;;;;;;;13.17;3.27;;;4.20;99.90;;;;;;4956932;28;20043;-86
2021/12/08 08:29:19;;;;;;;11.80;3.17;;;4.30;99.90;;;;;;4957146;29;20047;-86
2021/12/08 08:32:01;;;;;;;11.07;3.20;;;4.20;99.90;;;;;;4955758;28;20039;-87
2021/12/08 08:34:33;;;;;;;14.77;3.40;;;4.30;99.90;;;;;;4954754;29;20055;-86
2021/12/08 08:36:59;;;;;;;13.47;3.43;;;4.40;99.90;;;;;;4955195;28;20070;-86
2021/12/08 08:39:29;;;;;;;14.73;3.83;;;4.40;99.90;;;;;;4955953;28;20093;-87
2021/12/08 08:42:01;;;;;;;10.13;2.70;;;4.50;99.90;;;;;;4954558;28;20098;-91
2021/12/08 08:44:43;;;;;;;12.23;3.07;;;4.50;99.90;;;;;;4957043;28;20085;-86
2021/12/08 08:47:15;;;;;;;11.90;3.47;;;4.50;99.90;;;;;;4965333;28;20387;-91
2021/12/08 08:49:42;;;;;;;8.10;2.77;;;4.50;99.90;;;;;;4967712;28;20035;-93
2021/12/08 08:52:13;;;;;;;11.97;3.20;;;4.50;99.90;;;;;;4970850;28;20074;-90
2021/12/08 08:54:42;;;;;;;14.10;2.90;;;3.70;99.90;;;;;;4973461;28;20585;-88
2021/12/08 08:57:15;;;;;;;9.63;2.73;;;4.60;99.90;;;;;;4974754;28;20554;-90
2021/12/08 08:59:46;;;;;;;11.10;3.10;;;4.60;99.90;;;;;;4974181;28;20049;-90
2021/12/08 09:02:17;;;;;;;14.83;2.97;;;4.60;99.90;;;;;;4992340;28;20045;-89
2021/12/08 09:04:53;;;;;;;13.17;2.97;;;4.70;99.90;;;;;;4997128;28;20034;-89
2021/12/08 09:07:24;;;;;;;15.03;3.33;;;4.70;99.90;;;;;;4998719;28;20054;-89
2021/12/08 09:09:53;;;;;;;10.80;2.60;;;4.70;99.90;;;;;;4984093;28;20053;-89
2021/12/08 09:12:36;;;;;;;13.63;2.80;;;4.70;99.90;;;;;;4973698;28;20046;-88
2021/12/08 09:15:34;;;;;;;12.07;2.80;;;4.80;99.90;;;;;;4973885;28;20053;-88
2021/12/08 09:18:10;;;;;;;12.03;3.10;;;4.90;99.90;;;;;;4972888;28;20063;-88
2021/12/08 09:20:59;;;;;;;13.40;3.43;;;5.10;99.90;;;;;;4974081;28;20051;-89
2021/12/08 09:23:31;;;;;;;14.17;3.67;;;5.10;99.90;;;;;;4973159;28;20142;-89
2021/12/08 09:26:04;;;;;;;12.50;3.50;;;5.20;99.90;;;;;;4973708;28;20110;-89
2021/12/08 09:28:37;;;;;;;10.60;2.90;;;5.30;99.90;;;;;;4973554;28;20047;-88
2021/12/08 09:31:11;;;;;;;10.73;2.87;;;5.40;99.90;;;;;;4976035;28;20054;-89
2021/12/08 09:33:56;;;;;;;12.60;3.00;;;5.40;99.90;;;;;;4974412;28;20057;-89
2021/12/08 09:36:29;;;;;;;13.50;3.33;;;5.40;99.90;;;;;;4973625;28;20075;-89
2021/12/08 09:39:06;;;;;;;12.75;3.10;;;5.40;99.90;;;;;;4974130;28;20047;-88
2021/12/08 09:41:45;;;;;;;14.00;3.43;;;5.40;99.90;;;;;;4972769;28;20474;-88
2021/12/08 09:44:23;;;;;;;15.23;3.27;;;5.40;99.90;;;;;;4973586;28;20061;-88
2021/12/08 09:46:52;;;;;;;12.57;3.20;;;5.30;99.90;;;;;;4972781;28;20046;-89
2021/12/08 09:49:24;;;;;;;12.87;2.80;;;5.30;99.90;;;;;;4973263;28;20059;-89
2021/12/08 09:51:52;;;;;;;12.50;3.10;;;5.40;99.90;;;;;;4974648;28;20041;-89
2021/12/08 09:54:19;;;;;;;12.20;3.20;;;5.40;99.90;;;;;;4973656;28;20051;-88
2021/12/08 09:56:46;;;;;;;13.63;2.83;;;5.40;99.90;;;;;;4976559;28;20058;-86
2021/12/08 09:59:12;;;;;;;10.17;3.00;;;5.40;99.90;;;;;;4976883;28;20050;-88
2021/12/08 10:01:41;;;;;;;11.53;3.33;;;5.40;99.90;;;;;;4976970;28;20058;-88
2021/12/08 10:04:08;;;;;;;12.70;3.30;;;5.50;99.90;;;;;;4976882;28;20086;-90
2021/12/08 10:06:36;;;;;;;11.80;3.67;;;6.60;99.90;;;;;;4977426;28;20043;-88
2021/12/08 10:09:07;;;;;;;11.73;3.43;;;5.50;99.90;;;;;;4977437;28;20043;-89
2021/12/08 10:11:33;;;;;;;10.97;3.10;;;5.60;99.90;;;;;;4977099;28;20101;-87
2021/12/08 10:14:01;;;;;;;11.50;3.17;;;5.50;99.90;;;;;;4986362;28;20129;-89
2021/12/08 10:16:28;;;;;;;11.80;3.57;;;5.50;99.90;;;;;;4981640;28;20498;-89
2021/12/08 10:18:55;;;;;;;10.90;3.10;;;6.00;99.90;;;;;;4976728;28;20054;-87
2021/12/08 10:21:30;;;;;;;12.47;2.87;;;5.80;99.90;;;;;;4977685;28;20043;-88
2021/12/08 10:23:56;;;;;;;10.60;3.43;;;6.70;99.90;;;;;;4991063;28;20057;-89
2021/12/08 10:26:24;;;;;;;9.77;2.73;;;6.50;99.90;;;;;;4978041;28;20051;-89
2021/12/08 10:28:59;;;;;;;10.57;3.03;;;5.30;99.90;;;;;;4980044;28;20466;-89
2021/12/08 10:31:30;;;;;;;12.87;3.07;;;5.80;99.90;;;;;;4976752;28;20047;-87
2021/12/08 10:34:21;;;;;;;10.77;2.90;;;5.70;99.90;;;;;;4975028;28;20047;-84
2021/12/08 10:37:07;;;;;;;12.30;3.03;;;5.90;99.90;;;;;;4975524;28;20110;-87
2021/12/08 10:39:35;;;;;;;15.93;3.90;;;5.80;99.90;;;;;;4978149;28;20065;-87
2021/12/08 10:42:19;;;;;;;13.30;3.67;;;5.80;99.90;;;;;;4970049;28;20451;-87
2021/12/08 10:45:11;;;;;;;12.88;3.63;;;5.70;99.90;;;;;;4975077;28;20051;-86
2021/12/08 10:48:05;;;;;;;11.57;3.17;;;5.50;99.90;;;;;;4976002;28;20503;-86
2021/12/08 10:56:19;;;;;;;9.37;2.77;;;5.60;99.90;;;;;;4975775;28;20059;-87
2021/12/08 10:58:50;;;;;;;10.02;2.75;;;5.90;99.90;;;;;;4974934;28;20410;-86
2021/12/08 11:01:25;;;;;;;11.00;3.23;;;5.00;99.90;;;;;;4967050;28;20042;-87
2021/12/08 11:04:00;;;;;;;12.70;4.43;;;5.70;99.90;;;;;;4975720;28;20047;-87
2021/12/08 11:06:31;;;;;;;11.40;3.30;;;6.00;99.90;;;;;;4973840;28;20054;-86
2021/12/08 11:08:57;;;;;;;13.83;3.10;;;5.10;99.90;;;;;;4974227;28;20046;-86
2021/12/08 11:11:31;;;;;;;12.67;3.33;;;5.50;99.90;;;;;;4967003;28;20045;-86
2021/12/08 11:14:02;;;;;;;12.57;3.95;;;5.40;99.90;;;;;;4972474;28;20070;-86
2021/12/08 11:16:35;;;;;;;12.03;3.20;;;5.30;99.90;;;;;;4975333;28;20112;-86
2021/12/08 11:19:04;;;;;;;12.57;3.27;;;5.50;99.90;;;;;;4974426;28;20050;-86
2021/12/08 11:21:37;;;;;;;12.30;3.30;;;6.10;99.90;;;;;;4974723;28;20528;-85
2021/12/08 11:24:10;;;;;;;12.27;3.13;;;6.00;99.90;;;;;;4974853;28;20122;-86
2021/12/08 11:26:41;;;;;;;11.07;3.07;;;5.40;99.90;;;;;;4974606;28;20047;-85
2021/12/08 11:29:10;;;;;;;10.90;3.00;;;5.80;99.90;;;;;;4976336;28;20562;-88
2021/12/08 11:31:55;;;;;;;12.07;4.10;;;6.50;99.90;;;;;;4976322;28;20455;-88
2021/12/08 11:34:27;;;;;;;12.57;3.23;;;5.60;99.90;;;;;;4975352;28;20047;-88
2021/12/08 11:36:59;;;;;;;11.60;3.07;;;5.40;99.90;;;;;;4976042;28;20112;-86
2021/12/08 11:39:40;;;;;;;13.00;3.27;;;5.40;99.90;;;;;;4974143;28;20545;-86
2021/12/08 11:42:16;;;;;;;12.53;3.00;;;5.60;99.90;;;;;;4974367;28;20149;-86
2021/12/08 11:44:45;;;;;;;10.77;3.27;;;5.70;99.90;;;;;;4975806;28;20443;-86
2021/12/08 11:47:16;;;;;;;11.87;2.77;;;5.30;99.90;;;;;;4973476;28;20050;-85
2021/12/08 11:49:46;;;;;;;11.47;3.23;;;5.70;99.90;;;;;;4975537;28;20048;-88
2021/12/08 11:52:15;;;;;;;9.90;3.03;;;5.70;99.90;;;;;;4967301;28;20126;-85
2021/12/08 11:54:54;;;;;;;11.10;3.23;;;5.90;99.90;;;;;;4969066;28;20054;-85
2021/12/08 11:57:23;;;;;;;10.97;3.00;;;5.90;99.90;;;;;;4970067;28;20058;-85
2021/12/08 12:00:00;;;;;;;10.57;3.10;;;5.90;99.90;;;;;;4960308;28;20055;-86
2021/12/08 12:02:35;;;;;;;14.70;3.30;;;5.90;99.90;;;;;;4964381;28;20047;-85
2021/12/08 12:05:05;;;;;;;10.83;3.00;;;5.80;99.90;;;;;;4975562;28;20113;-86
2021/12/08 12:07:30;;;;;;;15.03;3.50;;;5.80;99.90;;;;;;4998730;28;20042;-83
2021/12/08 12:09:56;;;;;;;10.90;3.00;;;5.80;99.90;;;;;;4981796;28;20138;-84
2021/12/08 12:12:22;;;;;;;9.83;3.10;;;5.80;99.90;;;;;;4977315;28;20105;-85
2021/12/08 12:14:48;;;;;;;9.57;3.00;;;5.70;99.90;;;;;;4972874;28;20555;-84
2021/12/08 12:17:15;;;;;;;11.97;3.23;;;5.80;99.90;;;;;;4977568;28;20488;-84
2021/12/08 12:20:13;;;;;;;9.60;3.00;;;5.80;99.90;;;;;;4974287;28;20059;-85
2021/12/08 12:23:02;;;;;;;9.67;2.80;;;5.80;99.90;;;;;;4958256;28;20094;-84
2021/12/08 12:26:06;;;;;;;10.40;3.00;;;5.80;99.90;;;;;;4972897;28;20105;-83
2021/12/08 12:28:38;;;;;;;10.40;3.17;;;5.80;99.90;;;;;;4972661;28;20051;-84
2021/12/08 12:31:19;;;;;;;11.43;2.90;;;5.80;99.90;;;;;;4974196;28;20049;-86
2021/12/08 12:33:46;;;;;;;11.73;3.20;;;5.80;99.90;;;;;;4974866;28;20039;-88
2021/12/08 12:36:27;;;;;;;10.80;3.70;;;5.80;99.90;;;;;;4974589;28;20403;-87
2021/12/08 12:38:53;;;;;;;11.60;3.40;;;5.80;99.90;;;;;;4970291;28;20038;-86
2021/12/08 12:41:29;;;;;;;11.20;3.07;;;5.80;99.90;;;;;;4954938;29;20174;-88
2021/12/08 12:44:14;;;;;;;11.33;3.10;;;5.90;99.90;;;;;;4971199;28;20060;-87
2021/12/08 12:47:25;;;;;;;11.37;2.90;;;6.30;99.90;;;;;;4974969;28;20090;-87
2021/12/08 12:50:00;;;;;;;9.50;2.80;;;5.80;99.90;;;;;;4973737;28;20057;-86
2021/12/08 12:52:38;;;;;;;9.73;2.70;;;5.80;99.90;;;;;;4973120;28;20049;-87
2021/12/08 12:55:17;;;;;;;9.80;2.90;;;5.80;99.90;;;;;;4973519;28;20110;-86
2021/12/08 12:58:01;;;;;;;10.20;2.90;;;5.80;99.90;;;;;;4971442;28;20107;-87
2021/12/08 13:00:39;;;;;;;9.80;2.80;;;5.80;99.90;;;;;;4973496;28;20504;-88
2021/12/08 13:03:06;;;;;;;13.37;3.40;;;5.80;99.90;;;;;;4969577;28;20094;-88
2021/12/08 13:05:53;;;;;;;9.30;2.70;;;5.70;99.90;;;;;;4969695;28;20381;-88
2021/12/08 13:08:40;;;;;;;13.83;3.17;;;5.70;99.90;;;;;;4973067;28;20129;-87
2021/12/08 13:11:41;;;;;;;8.63;2.93;;;5.70;99.90;;;;;;4972825;28;20113;-87
2021/12/08 13:14:23;;;;;;;11.30;2.90;;;5.80;99.90;;;;;;4972962;28;20082;-87
2021/12/08 13:17:08;;;;;;;8.13;2.60;;;5.70;99.90;;;;;;4972977;28;20066;-86
2021/12/08 13:19:55;;;;;;;8.88;2.67;;;5.70;99.90;;;;;;4972151;28;20039;-86
2021/12/08 13:22:40;;;;;;;10.73;2.37;;;5.70;99.90;;;;;;4972148;28;20138;-87
2021/12/08 13:25:27;;;;;;;12.87;2.80;;;5.80;99.90;;;;;;4972453;28;20082;-87
2021/12/08 13:28:15;;;;;;;10.47;2.67;;;5.80;99.90;;;;;;4973581;28;20480;-87
2021/12/08 13:30:53;;;;;;;10.40;2.50;;;5.80;99.90;;;;;;4978568;28;20054;-87
2021/12/08 13:33:32;;;;;;;9.87;2.60;;;5.80;99.90;;;;;;4978808;28;20448;-87
2021/12/08 13:36:19;;;;;;;10.37;2.50;;;5.90;99.90;;;;;;4980221;28;20062;-88
2021/12/08 13:39:05;;;;;;;12.07;2.70;;;5.90;99.90;;;;;;4979357;28;20047;-87
2021/12/08 13:41:34;;;;;;;9.60;2.60;;;5.90;99.90;;;;;;4978403;28;20051;-86
2021/12/08 13:44:17;;;;;;;10.57;2.73;;;5.90;99.90;;;;;;4978592;28;20063;-87
2021/12/08 13:46:46;;;;;;;10.47;2.93;;;5.90;99.90;;;;;;4978197;28;20046;-87
2021/12/08 13:49:24;;;;;;;13.43;2.93;;;5.80;99.90;;;;;;4976683;28;20493;-89
2021/12/08 13:52:07;;;;;;;10.77;2.73;;;5.90;99.90;;;;;;4976248;28;20051;-87
2021/12/08 13:54:42;;;;;;;11.40;2.70;;;5.80;99.90;;;;;;4978662;28;20043;-87
2021/12/08 13:57:31;;;;;;;11.10;2.57;;;5.80;99.90;;;;;;4979328;28;20407;-88
2021/12/08 14:00:07;;;;;;;9.37;2.83;;;5.80;99.90;;;;;;4978417;28;20134;-88
2021/12/08 14:02:43;;;;;;;10.60;2.57;;;5.90;99.90;;;;;;4983177;28;20046;-88
2021/12/08 14:05:22;;;;;;;11.80;3.10;;;5.80;99.90;;;;;;4982977;28;20361;-87